sensor_id;sensor_type;location;lat;lon;timestamp;pressure;altitude;pressure_sealevel;temperature;humidity
61337;BME280;47212;41.326;2.104;2024-01-15T00:02:38;100919.72;;;14.01;61.46
61337;BME280;47212;41.326;2.104;2024-01-15T00:07:45;100908.78;;;14.01;61.88
61337;BME280;47212;41.326;2.104;2024-01-15T00:12:48;100910.97;;;13.99;61.73
61337;BME280;47212;41.326;2.104;2024-01-15T00:17:50;100927.72;;;13.93;61.31
61337;BME280;47212;41.326;2.104;2024-01-15T00:22:58;100922.50;;;13.86;61.59
61337;BME280;47212;41.326;2.104;2024-01-15T00:28:05;100931.84;;;13.80;61.76
61337;BME280;47212;41.326;2.104;2024-01-15T00:33:08;100926.94;;;13.72;61.13
61337;BME280;47212;41.326;2.104;2024-01-15T00:38:10;100919.31;;;13.64;60.91
61337;BME280;47212;41.326;2.104;2024-01-15T00:43:14;100912.22;;;13.53;61.68
61337;BME280;47212;41.326;2.104;2024-01-15T00:48:16;100916.34;;;13.45;60.89
61337;BME280;47212;41.326;2.104;2024-01-15T00:53:19;100899.41;;;13.38;60.87
61337;BME280;47212;41.326;2.104;2024-01-15T00:58:21;100913.38;;;13.31;60.88
61337;BME280;47212;41.326;2.104;2024-01-15T01:03:23;100910.09;;;13.24;62.22
61337;BME280;47212;41.326;2.104;2024-01-15T01:08:30;100907.38;;;13.19;61.49
61337;BME280;47212;41.326;2.104;2024-01-15T01:13:33;100884.66;;;13.14;61.42
61337;BME280;47212;41.326;2.104;2024-01-15T01:18:35;100869.09;;;13.09;61.72
61337;BME280;47212;41.326;2.104;2024-01-15T01:23:39;100876.75;;;13.02;61.41
61337;BME280;47212;41.326;2.104;2024-01-15T01:28:42;100863.34;;;12.95;62.14
61337;BME280;47212;41.326;2.104;2024-01-15T01:33:44;100863.09;;;12.87;63.46
61337;BME280;47212;41.326;2.104;2024-01-15T01:38:46;100866.66;;;12.82;61.66
61337;BME280;47212;41.326;2.104;2024-01-15T01:43:49;100858.19;;;12.79;61.90
61337;BME280;47212;41.326;2.104;2024-01-15T01:48:51;100864.75;;;12.72;61.47
61337;BME280;47212;41.326;2.104;2024-01-15T01:53:56;100869.66;;;12.65;62.02
61337;BME280;47212;41.326;2.104;2024-01-15T01:58:59;100874.56;;;12.58;63.43
61337;BME280;47212;41.326;2.104;2024-01-15T02:04:05;100877.28;;;12.53;61.92
61337;BME280;47212;41.326;2.104;2024-01-15T02:09:09;100890.94;;;12.43;62.79
61337;BME280;47212;41.326;2.104;2024-01-15T02:14:12;100883.03;;;12.41;61.98
61337;BME280;47212;41.326;2.104;2024-01-15T02:21:49;100872.09;;;12.41;62.65
61337;BME280;47212;41.326;2.104;2024-01-15T02:26:51;100863.91;;;12.41;62.97
61337;BME280;47212;41.326;2.104;2024-01-15T02:31:57;100858.16;;;12.38;62.93
61337;BME280;47212;41.326;2.104;2024-01-15T02:37:04;100837.69;;;12.35;63.65
61337;BME280;47212;41.326;2.104;2024-01-15T02:42:06;100844.53;;;12.38;62.84
61337;BME280;47212;41.326;2.104;2024-01-15T02:47:16;100837.69;;;12.40;63.66
61337;BME280;47212;41.326;2.104;2024-01-15T02:52:18;100838.25;;;12.42;64.41
61337;BME280;47212;41.326;2.104;2024-01-15T02:57:21;100824.31;;;12.44;62.85
61337;BME280;47212;41.326;2.104;2024-01-15T03:02:26;100818.03;;;12.43;65.41
61337;BME280;47212;41.326;2.104;2024-01-15T03:07:34;100837.69;;;12.46;63.86
61337;BME280;47212;41.326;2.104;2024-01-15T03:12:37;100819.69;;;12.44;63.71
61337;BME280;47212;41.326;2.104;2024-01-15T03:17:38;100831.16;;;12.41;65.39
61337;BME280;47212;41.326;2.104;2024-01-15T03:22:41;100840.16;;;12.37;63.44
61337;BME280;47212;41.326;2.104;2024-01-15T03:27:46;100840.41;;;12.30;63.19
61337;BME280;47212;41.326;2.104;2024-01-15T03:32:48;100838.78;;;12.24;63.49
61337;BME280;47212;41.326;2.104;2024-01-15T03:37:52;100842.31;;;12.20;63.88
61337;BME280;47212;41.326;2.104;2024-01-15T03:42:55;100841.50;;;12.19;63.81
61337;BME280;47212;41.326;2.104;2024-01-15T03:47:57;100825.66;;;12.16;65.71
61337;BME280;47212;41.326;2.104;2024-01-15T03:53:03;100813.94;;;12.16;64.43
61337;BME280;47212;41.326;2.104;2024-01-15T03:58:07;100817.75;;;12.15;64.53
61337;BME280;47212;41.326;2.104;2024-01-15T04:03:10;100807.63;;;12.10;64.71
61337;BME280;47212;41.326;2.104;2024-01-15T04:08:12;100790.44;;;12.09;66.03
61337;BME280;47212;41.326;2.104;2024-01-15T04:13:14;100801.63;;;12.13;64.50
61337;BME280;47212;41.326;2.104;2024-01-15T04:18:21;100794.00;;;12.15;64.88
61337;BME280;47212;41.326;2.104;2024-01-15T04:23:24;100799.75;;;12.19;64.57
61337;BME280;47212;41.326;2.104;2024-01-15T04:28:26;100796.19;;;12.18;65.19
61337;BME280;47212;41.326;2.104;2024-01-15T04:33:28;100810.94;;;12.17;66.70
61337;BME280;47212;41.326;2.104;2024-01-15T04:38:31;100820.47;;;12.15;65.11
61337;BME280;47212;41.326;2.104;2024-01-15T04:43:35;100828.09;;;12.12;64.79
61337;BME280;47212;41.326;2.104;2024-01-15T04:48:38;100844.19;;;12.09;65.20
61337;BME280;47212;41.326;2.104;2024-01-15T04:53:41;100828.63;;;12.09;65.13
61337;BME280;47212;41.326;2.104;2024-01-15T04:58:48;100827.00;;;12.08;65.28
61337;BME280;47212;41.326;2.104;2024-01-15T05:03:52;100809.53;;;12.04;65.90
61337;BME280;47212;41.326;2.104;2024-01-15T05:09:01;100813.88;;;12.00;64.46
61337;BME280;47212;41.326;2.104;2024-01-15T05:14:06;100816.06;;;11.98;65.06
61337;BME280;47212;41.326;2.104;2024-01-15T05:19:20;100818.25;;;11.96;65.17
61337;BME280;47212;41.326;2.104;2024-01-15T05:24:33;100814.97;;;11.94;66.36
61337;BME280;47212;41.326;2.104;2024-01-15T05:29:39;100820.16;;;11.96;65.43
61337;BME280;47212;41.326;2.104;2024-01-15T05:34:50;100828.34;;;11.96;66.51
61337;BME280;47212;41.326;2.104;2024-01-15T05:39:59;100829.69;;;11.93;65.82
61337;BME280;47212;41.326;2.104;2024-01-15T05:45:09;100831.78;;;11.76;65.03
61337;BME280;47212;41.326;2.104;2024-01-15T05:50:17;100818.66;;;11.58;64.77
61337;BME280;47212;41.326;2.104;2024-01-15T05:55:24;100822.94;;;11.38;65.41
61337;BME280;47212;41.326;2.104;2024-01-15T06:00:32;100838.91;;;11.25;65.18
61337;BME280;47212;41.326;2.104;2024-01-15T06:05:42;100841.31;;;11.16;65.37
61337;BME280;47212;41.326;2.104;2024-01-15T06:10:53;100828.22;;;11.13;65.66
61337;BME280;47212;41.326;2.104;2024-01-15T06:16:15;100830.38;;;11.11;66.04
61337;BME280;47212;41.326;2.104;2024-01-15T06:21:28;100829.81;;;11.09;66.07
61337;BME280;47212;41.326;2.104;2024-01-15T06:26:38;100826.03;;;11.10;65.93
61337;BME280;47212;41.326;2.104;2024-01-15T06:31:45;100826.84;;;11.10;66.42
61337;BME280;47212;41.326;2.104;2024-01-15T06:36:54;100834.75;;;11.12;66.50
61337;BME280;47212;41.326;2.104;2024-01-15T06:42:09;100834.19;;;11.10;66.37
61337;BME280;47212;41.326;2.104;2024-01-15T06:47:23;100824.38;;;11.09;66.33
61337;BME280;47212;41.326;2.104;2024-01-15T06:52:33;100828.19;;;11.08;66.37
61337;BME280;47212;41.326;2.104;2024-01-15T06:57:43;100835.81;;;11.06;66.37
61337;BME280;47212;41.326;2.104;2024-01-15T07:02:55;100839.59;;;11.05;67.00
61337;BME280;47212;41.326;2.104;2024-01-15T07:08:11;100838.22;;;11.02;66.88
61337;BME280;47212;41.326;2.104;2024-01-15T07:13:16;100845.31;;;11.03;67.01
61337;BME280;47212;41.326;2.104;2024-01-15T07:18:36;100833.03;;;11.01;67.26
61337;BME280;47212;41.326;2.104;2024-01-15T07:23:49;100846.09;;;10.99;67.43
61337;BME280;47212;41.326;2.104;2024-01-15T07:29:00;100842.81;;;10.97;67.31
61337;BME280;47212;41.326;2.104;2024-01-15T07:34:15;100845.00;;;10.95;67.85
61337;BME280;47212;41.326;2.104;2024-01-15T07:39:20;100838.72;;;10.94;67.93
61337;BME280;47212;41.326;2.104;2024-01-15T07:44:29;100835.75;;;10.96;67.72
61337;BME280;47212;41.326;2.104;2024-01-15T07:49:35;100842.84;;;11.02;67.82
61337;BME280;47212;41.326;2.104;2024-01-15T07:54:42;100848.34;;;11.07;68.00
61337;BME280;47212;41.326;2.104;2024-01-15T07:59:47;100867.97;;;11.09;67.99
61337;BME280;47212;41.326;2.104;2024-01-15T08:05:07;100871.81;;;11.13;68.25
61337;BME280;47212;41.326;2.104;2024-01-15T08:10:21;100880.84;;;11.18;67.59
61337;BME280;47212;41.326;2.104;2024-01-15T08:15:26;100867.34;;;11.39;66.45
61337;BME280;47212;41.326;2.104;2024-01-15T08:21:01;100858.22;;;11.70;67.38
61337;BME280;47212;41.326;2.104;2024-01-15T08:26:13;100864.56;;;11.81;66.09
61337;BME280;47212;41.326;2.104;2024-01-15T08:31:29;100857.75;;;11.78;65.91
61337;BME280;47212;41.326;2.104;2024-01-15T08:36:35;100849.84;;;11.82;65.87
61337;BME280;47212;41.326;2.104;2024-01-15T08:41:42;100853.31;;;11.67;66.64
61337;BME280;47212;41.326;2.104;2024-01-15T08:46:53;100852.44;;;11.57;67.11
61337;BME280;47212;41.326;2.104;2024-01-15T08:51:59;100860.03;;;11.49;67.45
61337;BME280;47212;41.326;2.104;2024-01-15T08:57:11;100861.66;;;11.45;67.98
61337;BME280;47212;41.326;2.104;2024-01-15T09:02:27;100851.84;;;11.44;68.19
61337;BME280;47212;41.326;2.104;2024-01-15T09:07:31;100848.59;;;11.47;68.27
61337;BME280;47212;41.326;2.104;2024-01-15T09:12:34;100850.50;;;11.52;68.12
61337;BME280;47212;41.326;2.104;2024-01-15T09:17:42;100847.00;;;11.57;68.50
61337;BME280;47212;41.326;2.104;2024-01-15T09:22:57;100851.69;;;11.76;67.84
61337;BME280;47212;41.326;2.104;2024-01-15T09:28:11;100848.22;;;11.91;67.38
61337;BME280;47212;41.326;2.104;2024-01-15T09:33:17;100842.88;;;12.27;66.68
61337;BME280;47212;41.326;2.104;2024-01-15T09:38:25;100847.81;;;12.75;65.80
61337;BME280;47212;41.326;2.104;2024-01-15T09:43:31;100838.50;;;12.97;65.62
61337;BME280;47212;41.326;2.104;2024-01-15T09:48:43;100860.38;;;13.07;65.91
61337;BME280;47212;41.326;2.104;2024-01-15T09:53:57;100862.81;;;13.08;66.13
61337;BME280;47212;41.326;2.104;2024-01-15T09:59:03;100867.47;;;13.08;65.72
61337;BME280;47212;41.326;2.104;2024-01-15T10:19:48;100863.91;;;13.23;66.44
61337;BME280;47212;41.326;2.104;2024-01-15T10:24:55;100852.13;;;13.32;65.70
61337;BME280;47212;41.326;2.104;2024-01-15T10:30:11;100849.38;;;13.37;66.25
61337;BME280;47212;41.326;2.104;2024-01-15T10:35:22;100849.91;;;13.45;66.52
61337;BME280;47212;41.326;2.104;2024-01-15T10:40:33;100832.66;;;13.49;66.42
61337;BME280;47212;41.326;2.104;2024-01-15T10:45:42;100814.84;;;13.57;66.07
61337;BME280;47212;41.326;2.104;2024-01-15T10:50:57;100808.22;;;13.68;66.27
61337;BME280;47212;41.326;2.104;2024-01-15T10:56:07;100822.09;;;13.82;66.28
61337;BME280;47212;41.326;2.104;2024-01-15T11:01:21;100812.53;;;13.89;65.93
61337;BME280;47212;41.326;2.104;2024-01-15T11:06:49;100797.75;;;13.90;66.47
61337;BME280;47212;41.326;2.104;2024-01-15T11:12:20;100785.69;;;13.91;66.72
61337;BME280;47212;41.326;2.104;2024-01-15T11:17:23;100788.69;;;13.95;66.11
61337;BME280;47212;41.326;2.104;2024-01-15T11:27:44;100769.16;;;14.07;66.84
61337;BME280;47212;41.326;2.104;2024-01-15T11:33:00;100772.38;;;14.19;66.49
61337;BME280;47212;41.326;2.104;2024-01-15T11:38:28;100754.94;;;14.39;66.49
61337;BME280;47212;41.326;2.104;2024-01-15T11:43:37;100759.81;;;14.81;65.30
61337;BME280;47212;41.326;2.104;2024-01-15T11:48:56;100737.06;;;15.47;63.67
61337;BME280;47212;41.326;2.104;2024-01-15T11:54:13;100738.72;;;16.23;61.99
61337;BME280;47212;41.326;2.104;2024-01-15T11:59:22;100732.50;;;16.96;60.95
61337;BME280;47212;41.326;2.104;2024-01-15T12:04:26;100717.91;;;17.50;59.72
61337;BME280;47212;41.326;2.104;2024-01-15T12:09:46;100711.47;;;17.91;58.33
61337;BME280;47212;41.326;2.104;2024-01-15T12:14:55;100693.41;;;18.21;57.84
61337;BME280;47212;41.326;2.104;2024-01-15T12:20:07;100674.72;;;18.40;56.68
61337;BME280;47212;41.326;2.104;2024-01-15T12:25:11;100686.22;;;18.65;57.33
61337;BME280;47212;41.326;2.104;2024-01-15T12:30:32;100677.16;;;18.73;55.98
61337;BME280;47212;41.326;2.104;2024-01-15T12:35:42;100653.25;;;18.60;56.88
61337;BME280;47212;41.326;2.104;2024-01-15T12:40:48;100638.78;;;18.54;57.11
61337;BME280;47212;41.326;2.104;2024-01-15T12:45:56;100644.00;;;18.56;57.29
61337;BME280;47212;41.326;2.104;2024-01-15T12:51:08;100651.56;;;18.41;57.45
61337;BME280;47212;41.326;2.104;2024-01-15T12:56:10;100638.19;;;18.26;58.00
61337;BME280;47212;41.326;2.104;2024-01-15T13:01:18;100622.59;;;18.22;58.06
61337;BME280;47212;41.326;2.104;2024-01-15T13:06:29;100611.75;;;18.25;58.00
61337;BME280;47212;41.326;2.104;2024-01-15T13:11:36;100609.13;;;18.20;58.27
61337;BME280;47212;41.326;2.104;2024-01-15T13:16:46;100600.00;;;18.11;58.03
61337;BME280;47212;41.326;2.104;2024-01-15T13:21:53;100581.13;;;17.96;57.61
61337;BME280;47212;41.326;2.104;2024-01-15T13:26:58;100577.13;;;17.79;58.83
61337;BME280;47212;41.326;2.104;2024-01-15T13:32:04;100583.53;;;17.66;59.34
61337;BME280;47212;41.326;2.104;2024-01-15T13:37:12;100568.88;;;17.57;59.64
61337;BME280;47212;41.326;2.104;2024-01-15T13:42:20;100562.34;;;17.53;59.94
61337;BME280;47212;41.326;2.104;2024-01-15T13:47:31;100549.28;;;17.59;59.89
61337;BME280;47212;41.326;2.104;2024-01-15T13:52:33;100544.53;;;17.50;59.88
61337;BME280;47212;41.326;2.104;2024-01-15T13:57:39;100547.03;;;17.38;60.50
61337;BME280;47212;41.326;2.104;2024-01-15T14:03:01;100552.25;;;17.26;60.38
61337;BME280;47212;41.326;2.104;2024-01-15T14:08:07;100542.13;;;17.13;61.05
61337;BME280;47212;41.326;2.104;2024-01-15T14:13:14;100537.16;;;17.01;61.08
61337;BME280;47212;41.326;2.104;2024-01-15T14:18:21;100538.53;;;16.90;61.37
61337;BME280;47212;41.326;2.104;2024-01-15T14:23:37;100532.13;;;16.81;61.77
61337;BME280;47212;41.326;2.104;2024-01-15T14:28:40;100539.16;;;16.73;61.96
61337;BME280;47212;41.326;2.104;2024-01-15T14:33:42;100546.72;;;16.68;62.84
61337;BME280;47212;41.326;2.104;2024-01-15T14:38:47;100547.91;;;16.62;64.31
61337;BME280;47212;41.326;2.104;2024-01-15T14:43:53;100542.41;;;16.62;64.43
61337;BME280;47212;41.326;2.104;2024-01-15T14:49:02;100528.97;;;16.60;63.93
61337;BME280;47212;41.326;2.104;2024-01-15T14:54:05;100512.31;;;16.56;63.47
61337;BME280;47212;41.326;2.104;2024-01-15T14:59:10;100512.91;;;16.53;63.18
61337;BME280;47212;41.326;2.104;2024-01-15T15:04:13;100519.03;;;16.50;62.83
61337;BME280;47212;41.326;2.104;2024-01-15T15:09:17;100513.22;;;16.52;62.86
61337;BME280;47212;41.326;2.104;2024-01-15T15:14:19;100517.91;;;16.51;62.80
61337;BME280;47212;41.326;2.104;2024-01-15T15:19:22;100528.91;;;16.51;63.20
61337;BME280;47212;41.326;2.104;2024-01-15T15:24:24;100521.97;;;16.54;63.04
61337;BME280;47212;41.326;2.104;2024-01-15T15:29:29;100527.56;;;16.63;63.13
61337;BME280;47212;41.326;2.104;2024-01-15T15:34:31;100518.63;;;16.71;62.88
61337;BME280;47212;41.326;2.104;2024-01-15T15:39:34;100508.44;;;16.71;62.78
61337;BME280;47212;41.326;2.104;2024-01-15T15:44:39;100501.63;;;16.69;63.03
61337;BME280;47212;41.326;2.104;2024-01-15T15:49:48;100500.50;;;16.70;62.93
61337;BME280;47212;41.326;2.104;2024-01-15T15:54:51;100511.81;;;16.68;63.04
61337;BME280;47212;41.326;2.104;2024-01-15T15:59:55;100503.31;;;16.65;63.29
61337;BME280;47212;41.326;2.104;2024-01-15T16:04:57;100494.06;;;16.61;63.71
61337;BME280;47212;41.326;2.104;2024-01-15T16:10:01;100496.94;;;16.55;64.11
61337;BME280;47212;41.326;2.104;2024-01-15T16:15:17;100513.22;;;16.52;63.95
61337;BME280;47212;41.326;2.104;2024-01-15T16:20:20;100500.28;;;16.52;64.09
61337;BME280;47212;41.326;2.104;2024-01-15T16:25:46;100504.97;;;16.52;64.15
61337;BME280;47212;41.326;2.104;2024-01-15T16:30:49;100484.44;;;16.49;64.36
61337;BME280;47212;41.326;2.104;2024-01-15T16:35:58;100468.53;;;16.46;64.51
61337;BME280;47212;41.326;2.104;2024-01-15T16:41:03;100468.34;;;16.43;64.39
61337;BME280;47212;41.326;2.104;2024-01-15T16:46:07;100466.50;;;16.38;64.01
61337;BME280;47212;41.326;2.104;2024-01-15T16:51:11;100466.31;;;16.35;64.27
61337;BME280;47212;41.326;2.104;2024-01-15T16:56:15;100484.53;;;16.31;64.52
61337;BME280;47212;41.326;2.104;2024-01-15T17:01:22;100493.19;;;16.24;64.62
61337;BME280;47212;41.326;2.104;2024-01-15T17:06:25;100522.97;;;16.17;65.13
61337;BME280;47212;41.326;2.104;2024-01-15T17:11:30;100533.03;;;16.08;65.01
61337;BME280;47212;41.326;2.104;2024-01-15T17:16:33;100533.44;;;16.01;65.43
61337;BME280;47212;41.326;2.104;2024-01-15T17:21:36;100537.91;;;15.97;65.50
61337;BME280;47212;41.326;2.104;2024-01-15T17:26:39;100537.09;;;15.97;66.03
61337;BME280;47212;41.326;2.104;2024-01-15T17:31:45;100559.66;;;15.93;66.52
61337;BME280;47212;41.326;2.104;2024-01-15T17:36:48;100563.03;;;15.90;66.33
61337;BME280;47212;41.326;2.104;2024-01-15T17:41:50;100568.81;;;15.89;66.32
61337;BME280;47212;41.326;2.104;2024-01-15T17:46:54;100572.88;;;15.91;66.55
61337;BME280;47212;41.326;2.104;2024-01-15T17:51:59;100604.53;;;16.03;66.50
61337;BME280;47212;41.326;2.104;2024-01-15T17:57:01;100610.75;;;16.08;66.08
61337;BME280;47212;41.326;2.104;2024-01-15T18:02:05;100623.56;;;16.13;66.06
61337;BME280;47212;41.326;2.104;2024-01-15T18:07:08;100632.09;;;16.11;66.10
61337;BME280;47212;41.326;2.104;2024-01-15T18:12:12;100654.88;;;16.12;66.46
61337;BME280;47212;41.326;2.104;2024-01-15T18:17:18;100672.78;;;16.09;66.39
61337;BME280;47212;41.326;2.104;2024-01-15T18:22:24;100664.03;;;16.07;66.86
61337;BME280;47212;41.326;2.104;2024-01-15T18:27:27;100682.13;;;16.08;66.83
61337;BME280;47212;41.326;2.104;2024-01-15T18:32:30;100675.31;;;16.06;66.53
61337;BME280;47212;41.326;2.104;2024-01-15T18:37:33;100669.59;;;16.02;66.92
61337;BME280;47212;41.326;2.104;2024-01-15T18:42:36;100672.13;;;15.99;66.99
61337;BME280;47212;41.326;2.104;2024-01-15T18:47:42;100674.44;;;15.91;67.16
61337;BME280;47212;41.326;2.104;2024-01-15T18:52:45;100683.28;;;15.88;67.59
61337;BME280;47212;41.326;2.104;2024-01-15T18:57:51;100693.22;;;15.84;67.70
61337;BME280;47212;41.326;2.104;2024-01-15T19:02:55;100691.59;;;15.83;67.51
61337;BME280;47212;41.326;2.104;2024-01-15T19:08:01;100700.94;;;15.82;67.90
61337;BME280;47212;41.326;2.104;2024-01-15T19:13:06;100711.41;;;15.80;67.74
61337;BME280;47212;41.326;2.104;2024-01-15T19:18:10;100721.88;;;15.78;68.25
61337;BME280;47212;41.326;2.104;2024-01-15T19:23:15;100737.50;;;15.78;68.81
61337;BME280;47212;41.326;2.104;2024-01-15T19:28:19;100743.59;;;15.75;68.35
61337;BME280;47212;41.326;2.104;2024-01-15T19:33:25;100752.44;;;15.72;68.66
61337;BME280;47212;41.326;2.104;2024-01-15T19:38:27;100747.81;;;15.67;68.75
61337;BME280;47212;41.326;2.104;2024-01-15T19:43:31;100758.88;;;15.62;68.94
61337;BME280;47212;41.326;2.104;2024-01-15T19:48:35;100758.06;;;15.56;68.91
61337;BME280;47212;41.326;2.104;2024-01-15T19:53:46;100760.06;;;15.51;69.43
61337;BME280;47212;41.326;2.104;2024-01-15T19:58:48;100761.25;;;15.45;69.50
61337;BME280;47212;41.326;2.104;2024-01-15T20:03:52;100784.34;;;15.39;69.59
61337;BME280;47212;41.326;2.104;2024-01-15T20:08:55;100783.91;;;15.32;69.78
61337;BME280;47212;41.326;2.104;2024-01-15T20:13:58;100783.44;;;15.24;70.03
61337;BME280;47212;41.326;2.104;2024-01-15T20:19:00;100796.69;;;15.17;70.15
61337;BME280;47212;41.326;2.104;2024-01-15T20:24:06;100810.44;;;15.12;70.49
61337;BME280;47212;41.326;2.104;2024-01-15T20:29:10;100813.25;;;15.07;70.84
61337;BME280;47212;41.326;2.104;2024-01-15T20:34:13;100800.69;;;15.01;71.12
61337;BME280;47212;41.326;2.104;2024-01-15T20:39:15;100805.13;;;14.97;71.90
61337;BME280;47212;41.326;2.104;2024-01-15T20:44:18;100804.06;;;14.93;72.43
61337;BME280;47212;41.326;2.104;2024-01-15T20:49:23;100823.88;;;14.85;72.99
61337;BME280;47212;41.326;2.104;2024-01-15T20:54:28;100829.94;;;14.82;74.41
61337;BME280;47212;41.326;2.104;2024-01-15T20:59:30;100846.16;;;14.78;75.21
61337;BME280;47212;41.326;2.104;2024-01-15T21:04:33;100845.91;;;14.75;75.69
61337;BME280;47212;41.326;2.104;2024-01-15T21:09:37;100835.75;;;14.75;76.46
61337;BME280;47212;41.326;2.104;2024-01-15T21:14:43;100846.44;;;14.72;76.06
61337;BME280;47212;41.326;2.104;2024-01-15T21:19:49;100835.25;;;14.68;75.78
61337;BME280;47212;41.326;2.104;2024-01-15T21:24:57;100852.53;;;14.63;74.92
61337;BME280;47212;41.326;2.104;2024-01-15T21:30:00;100854.22;;;14.59;74.63
61337;BME280;47212;41.326;2.104;2024-01-15T21:35:03;100864.94;;;14.56;74.38
61337;BME280;47212;41.326;2.104;2024-01-15T21:40:05;100844.16;;;14.50;74.34
61337;BME280;47212;41.326;2.104;2024-01-15T21:45:13;100849.69;;;14.45;74.33
61337;BME280;47212;41.326;2.104;2024-01-15T21:50:21;100842.03;;;14.37;74.56
61337;BME280;47212;41.326;2.104;2024-01-15T21:55:25;100859.56;;;14.35;74.50
61337;BME280;47212;41.326;2.104;2024-01-15T22:00:27;100872.19;;;14.31;74.66
61337;BME280;47212;41.326;2.104;2024-01-15T22:05:31;100869.50;;;14.26;74.45
61337;BME280;47212;41.326;2.104;2024-01-15T22:10:40;100866.25;;;14.19;74.65
61337;BME280;47212;41.326;2.104;2024-01-15T22:15:43;100869.59;;;14.11;74.63
61337;BME280;47212;41.326;2.104;2024-01-15T22:20:45;100877.59;;;14.02;74.71
61337;BME280;47212;41.326;2.104;2024-01-15T22:25:49;100886.38;;;13.94;74.83
61337;BME280;47212;41.326;2.104;2024-01-15T22:30:56;100879.28;;;13.83;74.70
61337;BME280;47212;41.326;2.104;2024-01-15T22:36:01;100874.94;;;13.77;74.99
61337;BME280;47212;41.326;2.104;2024-01-15T22:41:08;100882.34;;;13.71;74.88
61337;BME280;47212;41.326;2.104;2024-01-15T22:46:12;100876.88;;;13.71;74.95
61337;BME280;47212;41.326;2.104;2024-01-15T22:51:14;100876.06;;;13.71;75.11
61337;BME280;47212;41.326;2.104;2024-01-15T22:56:20;100866.50;;;13.68;75.42
61337;BME280;47212;41.326;2.104;2024-01-15T23:01:24;100864.03;;;13.67;75.57
61337;BME280;47212;41.326;2.104;2024-01-15T23:06:27;100873.34;;;13.66;75.60
61337;BME280;47212;41.326;2.104;2024-01-15T23:11:30;100882.66;;;13.65;75.67
61337;BME280;47212;41.326;2.104;2024-01-15T23:16:32;100891.66;;;13.65;75.41
61337;BME280;47212;41.326;2.104;2024-01-15T23:21:44;100893.06;;;13.63;75.92
61337;BME280;47212;41.326;2.104;2024-01-15T23:26:58;100897.72;;;13.57;75.29
61337;BME280;47212;41.326;2.104;2024-01-15T23:32:05;100898.56;;;13.53;75.33
61337;BME280;47212;41.326;2.104;2024-01-15T23:37:18;100892.03;;;13.44;75.73
61337;BME280;47212;41.326;2.104;2024-01-15T23:42:30;100878.63;;;13.37;75.73
61337;BME280;47212;41.326;2.104;2024-01-15T23:48:03;100869.09;;;13.29;76.05
61337;BME280;47212;41.326;2.104;2024-01-15T23:53:07;100865.00;;;13.22;75.83
61337;BME280;47212;41.326;2.104;2024-01-15T23:58:18;100868.00;;;13.15;76.34
